• Join FlightAware (Why Join?)
  • Login
  • US Flag 
03:18PM EDT


 

Airport Tracker/Info


-or-


 

Live Flight TrackerFlight Track Log ✈ N63TV ✈ 22-Sep-2013 ✈ KTEB - KFIT

Flight Track Log - Related Links

Times and Time Zones

All times are in EDT time to prevent confusion due to time zone crossing. See the N63TV flight status page for this flight to view local times or setup timezone preferences in your user account.

Time Position Orientation Groundspeed Altitude Reporting Facility
EDT Latitude Longitude Course Direction KTS MPH feet Rate Location/Type
10:03AM 40.9167 -74.0000 37° Northeast 123 142 1,800  Level New York TRACON
10:04AM 40.9333 -73.9833 37° Northeast 88 101 2,600 600 Climbing New York TRACON
10:05AM 40.9500 -73.9667 37° Northeast 110 127 3,000 420 Climbing New York TRACON
10:06AM 40.9667 -73.9167 66° East 123 142 3,500 300 Climbing New York TRACON
10:07AM 40.9833 -73.8833 56° Northeast 124 143 3,600  Climbing New York TRACON
10:08AM 41.0167 -73.8500 37° Northeast 133 153 3,500  Descending New York TRACON
10:09AM 41.0333 -73.8000 66° East 133 153 3,600  Climbing New York TRACON
10:10AM 41.0500 -73.7667 56° Northeast 136 157 3,600 -60 Level New York TRACON
10:11AM 41.0833 -73.7333 37° Northeast 142 163 3,500 -60 Descending New York TRACON
10:12AM 41.1000 -73.7000 56° Northeast 135 155 3,500  Level New York TRACON
10:13AM 41.1333 -73.6667 37° Northeast 126 145 3,500  Level New York TRACON
10:14AM 41.1667 -73.6333 37° Northeast 132 152 3,600  Climbing New York TRACON
10:15AM 41.1833 -73.6000 56° Northeast 134 154 3,500  Descending New York TRACON
10:16AM 41.2167 -73.5667 37° Northeast 134 154 3,600  Climbing New York TRACON
10:17AM 41.2333 -73.5333 56° Northeast 131 151 3,600  Level New York TRACON
10:18AM 41.2667 -73.5000 37° Northeast 134 154 3,600  Level New York TRACON
10:19AM 41.3000 -73.4833 21° North 135 155 3,600 -60 Level New York TRACON
10:20AM 41.3167 -73.4500 56° Northeast 138 159 3,500  Descending New York TRACON
10:21AM 41.3500 -73.4167 37° Northeast 138 159 3,600  Climbing New York TRACON
10:22AM 41.3833 -73.3833 37° Northeast 138 159 3,600 -60 Level New York TRACON
10:23AM 41.4000 -73.3500 56° Northeast 139 160 3,500  Descending New York TRACON
10:24AM 41.4333 -73.3333 21° North 138 159 3,600 180 Climbing New York TRACON
10:25AM 41.4833 -73.3167 14° North 125 144 4,000 420 Climbing New York TRACON
10:26AM 41.5167 -73.3000 21° North 113 130 4,600 600 Climbing New York TRACON
10:27AM 41.5500 -73.2833 21° North 124 143 5,200 480 Climbing New York TRACON
10:27AM 41.5556 -73.2639 69° East 142 163 5,400 60 Climbing Boston Center
10:29AM 41.6164 -73.1981 39° Northeast 168 193 5,400  Level Boston Center
10:30AM 41.6458 -73.1625 42° Northeast 164 189 5,500  Climbing Boston Center
10:31AM 41.6794 -73.1128 48° Northeast 171 197 5,400 -60 Descending Boston Center
10:32AM 41.7108 -73.0742 43° Northeast 146 168 5,400  Level Boston Center
10:33AM 41.7444 -73.0439 34° Northeast 151 174 5,500  Climbing Boston Center
10:34AM 41.7736 -73.0164 35° Northeast 165 190 5,500  Level Boston Center
10:35AM 41.8114 -72.9747 39° Northeast 166 191 5,500  Level Boston Center
10:36AM 41.8450 -72.9361 41° Northeast 164 189 5,500  Level Boston Center
10:37AM 41.8742 -72.8972 45° Northeast 161 185 5,500 -60 Level Boston Center
10:38AM 41.9078 -72.8642 36° Northeast 163 188 5,400  Descending Boston Center
10:39AM 41.9433 -72.8281 37° Northeast 158 182 5,500  Climbing Boston Center
10:40AM 41.9728 -72.7808 50° Northeast 167 192 5,500 -60 Level Boston Center
10:41AM 42.0019 -72.7306 52° Northeast 164 189 5,400 -60 Descending Boston Center
10:42AM 42.0231 -72.6692 65° Northeast 167 192 5,400  Level Boston Center
10:43AM 42.0397 -72.6050 71° East 163 188 5,500  Climbing Boston Center
10:44AM 42.0586 -72.5492 65° Northeast 167 192 5,500  Level Boston Center
10:45AM 42.0711 -72.5017 70° East 164 189 5,500  Level Boston Center
10:46AM 42.0878 -72.4400 70° East 158 182 5,500  Level Boston Center
10:47AM 42.1086 -72.3925 59° Northeast 165 190 5,500  Level Boston Center
10:48AM 42.1419 -72.3533 41° Northeast 162 186 5,500  Level Boston Center
10:49AM 42.1731 -72.3169 41° Northeast 157 181 5,500 -60 Level Boston Center
10:50AM 42.2106 -72.2889 29° Northeast 163 188 5,400  Descending Boston Center
10:51AM 42.2544 -72.2494 34° Northeast 159 183 5,500  Climbing Boston Center
10:52AM 42.2917 -72.1986 45° Northeast 164 189 5,500  Level Boston Center
10:53AM 42.3186 -72.1481 54° Northeast 166 191 5,500 -300 Level Boston Center
10:54AM 42.3500 -72.1058 45° Northeast 169 194 5,000 -780 Descending Boston Center
10:55AM 42.3811 -72.0578 49° Northeast 161 185 4,100 -900 Descending Boston Center
10:57AM 42.4220 -71.9670 48° Northeast  Level FlightAware Approximate